MET'MAP v2.0
soon released !

Expected late october,
this new version will be
more efficient, smarter,
and hosted on a brand new
server x3 powerfull...
...and still free !


Not compatible ?
Try the mobile version !

LOG IN : | Subscribe | Disclaimer | Who is Orbifly ? |
ICAO code :
Legend : VFR Marginal VFR IFR Intensive IFR Very Intensive IFR
Visi :
Ceiling :
>= 8 km
>= 3000ft
5 to 8 km
1000 to 3000 ft
1500m to 5 km
500 to 1000 ft
800 to 1500m
200 to 500 ft
< 800m
< 200 ft

METAR - EGJB Guernsey - 28 Feb 2020 07:47 UTC
Data Sources :     NOAA   


- Airport Elevation : 336 ft
- IATA code : GCI
- No reported NOTAMs.


EGJB - Guernsey

Latest METAR recorded : 2015/08/11 07:50 EGJB 110750Z 03008KT 350V060 9999 FEW005 BKN011 15/14 Q1019
TAF TAF EGJB
Valid from the 28 at 06:00 until the 28 at 15:00 UTC


280456Z 2806/2815 17018KT 9999 -RA BKN015
TEMPO 2806/2815 5000 RADZ BKN005
BECMG 2809/2811 22021KT 7000 -RADZ BKN008
PROB40
TEMPO 2809/2815 3000 BR BKN002

Source NOAA
ATIS : +44 1481 238 957


MET'MAP, your aeronautical weather chart ! - Copyright ORBIFLY December 2007

Programming & Development : Alexandra Zaïnal
Co-Developer : Marc-Olivier Méhu
Technical & hardware support : Manuel Goepfert
Concept & Financing : Baudouin d'Aumeries